createdAt,value
2023-05-24T00:02:20.628Z,22.40
2023-05-24T00:04:49.841Z,19.48
2023-05-24T00:07:16.639Z,23.48
2023-05-24T00:09:43.378Z,22.17
2023-05-24T00:12:10.449Z,19.85
2023-05-24T00:14:37.308Z,20.45
2023-05-24T00:17:04.149Z,25.35
2023-05-24T00:19:30.829Z,19.05
2023-05-24T00:21:57.480Z,24.30
2023-05-24T00:24:24.147Z,18.50
2023-05-24T00:26:50.879Z,23.40
2023-05-24T00:29:17.675Z,21.35
2023-05-24T00:31:44.380Z,21.90
2023-05-24T00:34:11.269Z,24.48
2023-05-24T00:36:38.264Z,21.60
2023-05-24T00:39:05.340Z,19.60
2023-05-24T00:41:32.078Z,21.02
2023-05-24T00:43:58.788Z,26.88
2023-05-24T00:46:30.870Z,22.13
2023-05-24T00:48:58.634Z,21.48
2023-05-24T00:51:27.277Z,19.52
2023-05-24T00:53:54.977Z,21.33
2023-05-24T00:56:22.670Z,24.15
2023-05-24T00:58:50.792Z,21.02
2023-05-24T01:01:17.666Z,22.25
2023-05-24T01:03:46.206Z,21.80
2023-05-24T01:06:15.957Z,21.00
2023-05-24T01:08:53.166Z,19.45
2023-05-24T01:11:35.173Z,24.88
2023-05-24T01:14:16.193Z,20.65
2023-05-24T01:16:53.127Z,18.13
2023-05-24T01:19:44.714Z,18.65
2023-05-24T01:22:24.652Z,18.85
2023-05-24T01:25:16.430Z,20.58
2023-05-24T01:27:44.752Z,18.42
2023-05-24T01:30:13.122Z,20.83
2023-05-24T01:32:40.757Z,22.70
2023-05-24T01:35:07.972Z,19.60
2023-05-24T01:37:34.603Z,22.73
2023-05-24T01:40:02.187Z,22.17
2023-05-24T01:42:42.215Z,18.67
2023-05-24T01:45:14.757Z,20.50
2023-05-24T01:48:04.595Z,21.92
2023-05-24T01:50:45.539Z,16.35
2023-05-24T01:53:16.628Z,21.27
2023-05-24T01:55:44.932Z,20.25
2023-05-24T01:58:13.507Z,18.48
2023-05-24T02:00:41.655Z,20.67
2023-05-24T02:03:08.645Z,18.35
2023-05-24T02:05:35.424Z,20.23
2023-05-24T02:08:02.266Z,17.50
2023-05-24T02:10:28.924Z,19.80
2023-05-24T02:12:55.784Z,19.38
2023-05-24T02:15:22.580Z,20.50
2023-05-24T02:17:49.320Z,18.33
2023-05-24T02:20:17.662Z,16.70
2023-05-24T02:22:44.452Z,19.92
2023-05-24T02:25:11.150Z,20.60
2023-05-24T02:27:37.955Z,22.50
2023-05-24T02:30:06.661Z,18.27
2023-05-24T02:32:34.618Z,13.43
2023-05-24T02:35:04.048Z,14.52
2023-05-24T02:37:31.056Z,17.60
2023-05-24T02:39:59.019Z,19.35
2023-05-24T02:42:25.783Z,23.05
2023-05-24T02:44:53.280Z,24.05
2023-05-24T02:47:20.422Z,19.55
2023-05-24T02:49:47.333Z,15.95
2023-05-24T02:52:15.076Z,20.38
2023-05-24T02:54:41.949Z,18.20
2023-05-24T02:57:08.707Z,13.45
2023-05-24T02:59:36.564Z,20.40
2023-05-24T03:02:03.518Z,22.30
2023-05-24T03:04:30.415Z,17.33
2023-05-24T03:06:57.040Z,18.83
2023-05-24T03:09:24.162Z,15.80
2023-05-24T03:11:54.255Z,19.50
2023-05-24T03:14:23.893Z,17.35
2023-05-24T03:16:51.123Z,16.02
2023-05-24T03:19:18.221Z,16.70
2023-05-24T03:21:44.891Z,21.92
2023-05-24T03:24:13.856Z,21.08
2023-05-24T03:26:41.112Z,17.70
2023-05-24T03:29:07.935Z,17.83
2023-05-24T03:31:34.689Z,21.08
2023-05-24T03:34:01.355Z,24.73
2023-05-24T03:36:29.136Z,18.08
2023-05-24T03:38:58.318Z,17.75
2023-05-24T03:41:27.662Z,18.35
2023-05-24T03:43:55.112Z,17.35
2023-05-24T03:46:22.364Z,15.45
2023-05-24T03:48:51.299Z,21.88
2023-05-24T03:51:18.131Z,18.08
2023-05-24T03:53:45.008Z,18.63
2023-05-24T03:56:13.035Z,21.42
2023-05-24T03:58:39.965Z,18.15
2023-05-24T04:01:08.081Z,20.90
2023-05-24T04:03:35.329Z,18.45
2023-05-24T04:06:02.139Z,15.65
2023-05-24T04:08:29.808Z,18.33
2023-05-24T04:10:56.523Z,14.75
2023-05-24T04:13:23.125Z,14.82
2023-05-24T04:15:50.403Z,16.65
2023-05-24T04:18:17.410Z,16.73
2023-05-24T04:20:45.481Z,17.55
2023-05-24T04:23:12.368Z,13.27
2023-05-24T04:25:39.744Z,14.63
2023-05-24T04:28:07.003Z,18.30
2023-05-24T04:30:37.919Z,17.00
2023-05-24T04:33:04.723Z,16.15
2023-05-24T04:35:31.378Z,15.90
2023-05-24T04:37:59.714Z,14.88
2023-05-24T04:40:26.435Z,16.63
2023-05-24T04:42:53.939Z,15.32
2023-05-24T04:45:20.745Z,17.65
2023-05-24T04:47:47.361Z,16.50
2023-05-24T04:50:14.404Z,14.88
2023-05-24T04:52:41.086Z,14.73
2023-05-24T04:55:08.120Z,17.10
2023-05-24T04:57:34.873Z,18.02
2023-05-24T05:00:02.067Z,18.55
2023-05-24T05:02:29.001Z,19.35
2023-05-24T05:04:55.605Z,15.65
2023-05-24T05:07:22.440Z,17.08
2023-05-24T05:09:49.135Z,17.60
2023-05-24T05:12:16.167Z,19.20
2023-05-24T05:14:43.254Z,15.23
2023-05-24T05:17:09.890Z,17.92
2023-05-24T05:19:36.658Z,23.00
2023-05-24T05:22:03.333Z,18.33
2023-05-24T05:24:30.151Z,18.73
2023-05-24T05:26:56.837Z,27.40
2023-05-24T05:29:24.493Z,19.67
2023-05-24T05:31:51.462Z,18.48
2023-05-24T05:34:19.958Z,16.30
2023-05-24T05:36:46.790Z,21.38
2023-05-24T05:39:14.772Z,20.42
2023-05-24T05:41:45.995Z,19.33
2023-05-24T05:44:13.707Z,17.15
2023-05-24T05:46:42.484Z,19.95
2023-05-24T05:49:10.099Z,18.45
2023-05-24T05:51:38.681Z,17.02
2023-05-24T05:54:06.762Z,19.25
2023-05-24T05:56:33.826Z,18.00
2023-05-24T05:59:00.638Z,17.70
2023-05-24T06:01:28.450Z,14.63
2023-05-24T06:03:57.970Z,21.08
2023-05-24T06:06:25.204Z,16.60
2023-05-24T06:08:51.768Z,18.35
2023-05-24T06:11:19.182Z,19.42
2023-05-24T06:13:46.593Z,21.70
2023-05-24T06:16:14.600Z,22.98
2023-05-24T06:18:50.152Z,22.05
2023-05-24T06:21:24.236Z,18.73
2023-05-24T06:23:50.857Z,18.05
2023-05-24T06:26:17.638Z,19.17
2023-05-24T06:28:44.392Z,24.98
2023-05-24T06:31:11.446Z,20.00
2023-05-24T06:33:39.843Z,17.52
2023-05-24T06:36:09.336Z,20.40
2023-05-24T06:38:36.428Z,17.38
2023-05-24T06:41:04.111Z,18.30
2023-05-24T06:43:31.629Z,22.60
2023-05-24T06:45:58.213Z,18.52
2023-05-24T06:48:25.007Z,25.00
2023-05-24T06:50:52.408Z,16.42
2023-05-24T06:53:18.988Z,16.58
2023-05-24T06:55:46.256Z,20.00
2023-05-24T06:58:15.193Z,17.00
2023-05-24T07:00:43.721Z,23.90
2023-05-24T07:03:11.035Z,18.60
2023-05-24T07:05:37.936Z,23.40
2023-05-24T07:08:04.853Z,22.33
2023-05-24T07:10:31.775Z,15.68
2023-05-24T07:13:00.690Z,24.65
2023-05-24T07:15:27.309Z,14.23
2023-05-24T07:17:54.675Z,13.93
2023-05-24T07:20:21.439Z,18.33
2023-05-24T07:22:48.738Z,27.30
2023-05-24T07:25:15.396Z,15.38
2023-05-24T07:27:42.046Z,18.17
2023-05-24T07:30:23.510Z,14.60
2023-05-24T07:32:52.098Z,13.77
2023-05-24T07:35:19.282Z,15.57
2023-05-24T07:37:46.924Z,17.23
2023-05-24T07:40:14.229Z,16.98
2023-05-24T07:42:42.085Z,20.52
2023-05-24T07:45:10.627Z,21.17
2023-05-24T07:47:37.665Z,16.42
2023-05-24T07:50:04.730Z,16.10
2023-05-24T07:52:31.342Z,13.95
2023-05-24T07:54:57.974Z,21.25
2023-05-24T07:57:24.723Z,21.50
2023-05-24T07:59:53.241Z,19.40
2023-05-24T08:02:21.179Z,18.35
2023-05-24T08:04:50.141Z,21.15
2023-05-24T08:07:18.113Z,17.65
2023-05-24T08:09:47.847Z,17.73
2023-05-24T08:12:17.135Z,16.88
2023-05-24T08:14:44.717Z,16.40
2023-05-24T08:17:12.103Z,15.05
2023-05-24T08:22:09.584Z,20.88
2023-05-24T08:24:36.174Z,17.50
2023-05-24T08:27:04.188Z,22.20
2023-05-24T08:29:30.894Z,18.67
2023-05-24T08:31:58.131Z,23.13
2023-05-24T08:34:24.781Z,22.38
2023-05-24T08:36:51.398Z,19.27
2023-05-24T08:39:18.123Z,17.35
2023-05-24T08:41:49.551Z,19.10
2023-05-24T08:44:25.290Z,19.20
2023-05-24T08:46:54.777Z,17.90
2023-05-24T08:49:21.659Z,16.25
2023-05-24T08:51:49.318Z,16.20
2023-05-24T08:54:16.628Z,13.30
2023-05-24T08:56:43.905Z,12.95
2023-05-24T08:59:13.410Z,15.70
2023-05-24T09:01:41.880Z,16.90
2023-05-24T09:04:09.140Z,14.20
2023-05-24T09:06:36.946Z,17.40
2023-05-24T09:09:04.606Z,20.27
2023-05-24T09:11:32.289Z,13.45
2023-05-24T09:14:00.280Z,11.70
2023-05-24T09:16:27.465Z,14.82
2023-05-24T09:18:54.201Z,19.25
2023-05-24T09:21:21.353Z,15.15
2023-05-24T09:23:49.166Z,12.85
2023-05-24T09:26:15.942Z,15.40
2023-05-24T09:28:44.233Z,16.77
2023-05-24T09:31:12.248Z,13.05
2023-05-24T09:33:39.242Z,16.05
2023-05-24T09:36:07.302Z,13.73
2023-05-24T09:38:35.990Z,15.60
2023-05-24T09:41:07.250Z,12.25
2023-05-24T09:43:35.254Z,15.90
2023-05-24T09:46:05.646Z,11.60
2023-05-24T09:48:32.296Z,14.75
2023-05-24T09:51:11.513Z,11.80
2023-05-24T09:53:38.613Z,13.13
2023-05-24T09:56:09.801Z,12.70
2023-05-24T09:58:36.677Z,11.38
2023-05-24T10:01:08.356Z,13.70
2023-05-24T10:03:37.488Z,11.63
2023-05-24T10:06:09.575Z,12.45
2023-05-24T10:08:36.757Z,15.68
2023-05-24T10:11:06.342Z,12.07
2023-05-24T10:13:36.489Z,15.82
2023-05-24T10:16:03.795Z,11.07
2023-05-24T10:18:30.629Z,12.68
2023-05-24T10:21:00.899Z,13.65
2023-05-24T10:23:31.410Z,12.93
2023-05-24T10:26:09.713Z,15.32
2023-05-24T10:28:42.207Z,13.07
2023-05-24T10:31:25.736Z,17.10
2023-05-24T10:33:57.170Z,9.52
2023-05-24T10:36:28.860Z,12.77
2023-05-24T10:38:56.498Z,13.88
2023-05-24T10:41:27.203Z,10.95
2023-05-24T10:44:08.599Z,7.45
2023-05-24T10:46:36.609Z,12.45
2023-05-24T10:49:05.945Z,11.52
2023-05-24T10:51:38.648Z,11.68
2023-05-24T10:54:17.540Z,12.35
2023-05-24T10:56:49.485Z,12.27
2023-05-24T10:59:35.183Z,14.38
2023-05-24T11:02:03.440Z,17.23
2023-05-24T11:04:36.486Z,16.10
2023-05-24T11:07:05.398Z,12.98
2023-05-24T11:09:33.343Z,13.82
2023-05-24T11:12:09.432Z,16.60
2023-05-24T11:14:40.383Z,13.63
2023-05-24T11:17:08.212Z,16.65
2023-05-24T11:19:37.245Z,13.85
2023-05-24T11:22:07.563Z,13.57
2023-05-24T11:24:34.905Z,14.93
2023-05-24T11:27:06.058Z,12.25
2023-05-24T11:29:34.353Z,13.35
2023-05-24T11:32:04.990Z,11.77
2023-05-24T11:34:33.498Z,12.35
2023-05-24T11:37:06.042Z,17.17
2023-05-24T11:39:38.638Z,14.07
2023-05-24T11:42:06.578Z,13.27
2023-05-24T11:44:36.483Z,11.48
2023-05-24T11:47:05.270Z,9.50
2023-05-24T11:49:31.956Z,12.55
2023-05-24T11:51:59.888Z,10.18
2023-05-24T11:54:32.679Z,12.75
2023-05-24T11:59:42.042Z,10.27
2023-05-24T12:02:09.112Z,13.55
2023-05-24T12:04:35.889Z,12.80
2023-05-24T12:07:03.167Z,11.82
2023-05-24T12:09:30.110Z,12.40
2023-05-24T12:11:58.463Z,12.07
2023-05-24T12:14:28.470Z,11.13
2023-05-24T12:16:57.109Z,11.07
2023-05-24T12:19:33.560Z,10.65
2023-05-24T12:22:05.125Z,10.98
2023-05-24T12:24:32.383Z,11.70
2023-05-24T12:27:09.180Z,11.93
2023-05-24T12:29:41.977Z,10.90
2023-05-24T12:32:14.667Z,10.50
2023-05-24T12:34:43.530Z,11.35
2023-05-24T12:37:12.310Z,12.30
2023-05-24T12:39:39.808Z,9.88
2023-05-24T12:42:06.989Z,9.82
2023-05-24T12:44:37.607Z,10.00
2023-05-24T12:47:06.876Z,9.57
2023-05-24T12:49:33.679Z,8.13
2023-05-24T12:52:01.944Z,7.78
2023-05-24T12:54:29.874Z,7.60
2023-05-24T12:56:57.769Z,6.43
2023-05-24T12:59:25.528Z,8.75
2023-05-24T13:01:52.786Z,6.78
2023-05-24T13:04:21.825Z,8.02
2023-05-24T13:06:49.015Z,6.55
2023-05-24T13:09:18.769Z,7.90
2023-05-24T13:11:46.808Z,8.07
2023-05-24T13:14:15.345Z,8.00
2023-05-24T13:16:50.499Z,10.68
2023-05-24T13:19:24.719Z,11.95
2023-05-24T13:21:56.420Z,11.15
2023-05-24T13:27:28.072Z,11.27
2023-05-24T13:35:37.456Z,12.40
2023-05-24T13:38:28.429Z,18.30
2023-05-24T13:41:29.150Z,9.75
2023-05-24T13:44:22.009Z,14.55
2023-05-24T13:47:38.498Z,10.30
2023-05-24T13:52:53.423Z,10.88
2023-05-24T13:55:22.733Z,9.40
2023-05-24T13:58:05.831Z,10.45
2023-05-24T14:01:09.142Z,7.65
2023-05-24T14:03:54.295Z,11.18
2023-05-24T14:06:43.465Z,8.02
2023-05-24T14:09:21.959Z,7.45
2023-05-24T14:12:14.875Z,9.48
2023-05-24T14:14:59.631Z,12.27
2023-05-24T14:18:21.642Z,9.07
2023-05-24T14:21:05.331Z,9.70
2023-05-24T14:24:02.696Z,8.93
2023-05-24T14:26:39.848Z,8.95
2023-05-24T14:29:13.809Z,8.32
2023-05-24T14:31:59.887Z,9.00
2023-05-24T14:34:43.260Z,8.63
2023-05-24T14:37:17.598Z,10.57
2023-05-24T14:40:02.765Z,9.45
2023-05-24T14:42:39.686Z,11.68
2023-05-24T14:45:39.755Z,8.65
2023-05-24T14:48:10.860Z,10.38
2023-05-24T14:50:46.214Z,8.80
2023-05-24T14:53:27.761Z,7.88
2023-05-24T14:56:13.238Z,10.90
2023-05-24T15:01:33.103Z,9.52
2023-05-24T15:04:12.932Z,10.27
2023-05-24T15:06:48.039Z,11.45
2023-05-24T15:09:14.710Z,8.55
2023-05-24T15:11:47.317Z,11.15
2023-05-24T15:14:35.367Z,7.25
2023-05-24T15:17:04.659Z,9.18
2023-05-24T15:19:36.713Z,10.52
2023-05-24T15:22:05.842Z,7.57
2023-05-24T15:24:38.123Z,10.20
2023-05-24T15:27:07.546Z,8.52
2023-05-24T15:29:43.661Z,7.35
2023-05-24T15:32:23.224Z,7.63
2023-05-24T15:35:04.541Z,7.40
2023-05-24T15:38:03.099Z,5.38
2023-05-24T15:40:47.577Z,7.63
2023-05-24T15:43:23.265Z,8.13
2023-05-24T15:45:53.698Z,5.63
2023-05-24T15:48:23.871Z,6.60
2023-05-24T15:51:35.967Z,6.70
2023-05-24T15:54:07.438Z,7.07
2023-05-24T15:57:05.042Z,7.70
2023-05-24T15:59:41.900Z,8.23
2023-05-24T16:05:56.051Z,8.07
2023-05-24T16:14:43.637Z,9.38
2023-05-24T16:17:13.314Z,9.50
2023-05-24T16:20:03.864Z,6.80
2023-05-24T16:25:59.156Z,10.95
2023-05-24T16:28:31.491Z,7.65
2023-05-24T16:33:44.749Z,7.95
2023-05-24T16:39:25.005Z,7.00
2023-05-24T16:41:53.437Z,7.82
2023-05-24T16:44:24.385Z,9.18
2023-05-24T16:46:56.321Z,10.95
2023-05-24T16:49:28.528Z,12.88
2023-05-24T16:52:07.544Z,9.07
2023-05-24T16:54:48.568Z,10.95
2023-05-24T16:57:17.499Z,10.10
2023-05-24T16:59:57.922Z,12.00
2023-05-24T17:02:24.881Z,12.80
2023-05-24T17:04:54.387Z,10.48
2023-05-24T17:07:21.014Z,13.70
2023-05-24T17:10:24.512Z,10.95
2023-05-24T17:13:14.024Z,13.02
2023-05-24T17:15:50.300Z,11.25
2023-05-24T17:18:17.414Z,8.38
2023-05-24T17:20:53.102Z,12.30
2023-05-24T17:23:21.033Z,11.43
2023-05-24T17:25:58.216Z,13.50
2023-05-24T17:28:33.684Z,11.65
2023-05-24T17:31:04.492Z,9.82
2023-05-24T17:33:35.169Z,8.13
2023-05-24T17:36:09.869Z,9.65
2023-05-24T17:38:43.807Z,10.40
2023-05-24T17:41:25.481Z,7.90
2023-05-24T17:44:12.751Z,9.40
2023-05-24T17:46:44.321Z,7.63
2023-05-24T17:49:16.951Z,7.20
2023-05-24T17:51:44.606Z,6.90
2023-05-24T17:54:12.201Z,8.52
2023-05-24T17:59:35.750Z,13.82
2023-05-24T18:02:09.751Z,8.90
2023-05-24T18:04:43.907Z,8.88
2023-05-24T18:10:28.175Z,9.25
2023-05-24T18:12:58.188Z,10.88
2023-05-24T18:15:39.760Z,11.43
2023-05-24T18:18:12.946Z,11.13
2023-05-24T18:20:56.566Z,12.73
2023-05-24T18:23:23.210Z,8.20
2023-05-24T18:25:50.097Z,8.15
2023-05-24T18:28:27.359Z,7.93
2023-05-24T18:30:53.937Z,10.40
2023-05-24T18:33:20.770Z,11.63
2023-05-24T18:35:47.466Z,10.15
2023-05-24T18:38:14.201Z,9.80
2023-05-24T18:40:40.798Z,7.90
2023-05-24T18:43:07.403Z,8.90
2023-05-24T18:45:33.973Z,9.55
2023-05-24T18:48:01.202Z,7.15
2023-05-24T18:50:28.280Z,10.15
2023-05-24T18:52:54.920Z,6.60
2023-05-24T18:55:21.520Z,8.25
2023-05-24T18:57:49.207Z,8.65
2023-05-24T19:00:24.156Z,11.80
2023-05-24T19:02:51.101Z,8.27
2023-05-24T19:05:17.857Z,9.23
2023-05-24T19:07:44.502Z,13.30
2023-05-24T19:10:11.442Z,9.75
2023-05-24T19:12:38.083Z,7.32
2023-05-24T19:15:05.195Z,13.43
2023-05-24T19:17:32.009Z,11.13
2023-05-24T19:19:58.793Z,8.68
2023-05-24T19:22:27.507Z,8.77
2023-05-24T19:24:54.163Z,11.05
2023-05-24T19:27:20.724Z,9.07
2023-05-24T19:29:47.355Z,12.40
2023-05-24T19:32:14.105Z,11.73
2023-05-24T19:34:42.139Z,16.15
2023-05-24T19:37:09.659Z,11.63
2023-05-24T19:39:37.113Z,8.88
2023-05-24T19:42:04.254Z,15.80
2023-05-24T19:44:31.257Z,10.50
2023-05-24T19:46:57.907Z,9.25
2023-05-24T19:49:24.527Z,9.40
2023-05-24T19:51:51.599Z,10.45
2023-05-24T19:54:18.309Z,9.63
2023-05-24T19:56:45.646Z,10.57
2023-05-24T19:59:12.372Z,10.25
2023-05-24T20:01:39.039Z,11.40
2023-05-24T20:04:05.857Z,9.80
2023-05-24T20:06:33.068Z,12.23
2023-05-24T20:09:00.289Z,8.98
2023-05-24T20:11:27.978Z,10.30
2023-05-24T20:13:55.809Z,9.77
2023-05-24T20:16:23.043Z,9.25
2023-05-24T20:18:49.648Z,9.18
2023-05-24T20:21:17.770Z,10.20
2023-05-24T20:23:44.484Z,9.63
2023-05-24T20:26:11.252Z,12.02
2023-05-24T20:28:37.875Z,9.82
2023-05-24T20:31:04.847Z,10.90
2023-05-24T20:33:33.379Z,10.77
2023-05-24T20:36:00.038Z,7.45
2023-05-24T20:38:26.691Z,10.10
2023-05-24T20:40:53.267Z,10.38
2023-05-24T20:43:19.832Z,7.68
2023-05-24T20:45:47.250Z,8.88
2023-05-24T20:48:14.116Z,9.98
2023-05-24T20:50:40.922Z,6.80
2023-05-24T20:53:07.531Z,12.95
2023-05-24T20:55:34.436Z,10.27
2023-05-24T20:58:00.991Z,9.43
2023-05-24T21:00:27.574Z,10.43
2023-05-24T21:02:54.309Z,11.80
2023-05-24T21:05:21.117Z,14.20
2023-05-24T21:07:47.863Z,10.23
2023-05-24T21:10:18.469Z,13.65
2023-05-24T21:12:45.788Z,10.85
2023-05-24T21:15:12.383Z,12.73
2023-05-24T21:17:39.148Z,9.77
2023-05-24T21:20:06.495Z,12.68
2023-05-24T21:22:33.207Z,14.52
2023-05-24T21:24:59.817Z,13.02
2023-05-24T21:27:27.338Z,14.48
2023-05-24T21:29:53.991Z,12.30
2023-05-24T21:32:20.804Z,12.00
2023-05-24T21:34:47.418Z,15.25
2023-05-24T21:37:14.019Z,11.85
2023-05-24T21:39:41.009Z,13.25
2023-05-24T21:42:07.660Z,16.27
2023-05-24T21:44:34.253Z,13.75
2023-05-24T21:47:01.117Z,14.68
2023-05-24T21:49:27.705Z,13.43
2023-05-24T21:51:54.267Z,12.95
2023-05-24T21:54:21.071Z,14.10
2023-05-24T21:56:47.753Z,14.45
2023-05-24T21:59:14.866Z,15.88
2023-05-24T22:01:41.843Z,10.65
2023-05-24T22:04:09.950Z,8.60
2023-05-24T22:06:37.075Z,11.93
2023-05-24T22:09:03.852Z,12.15
2023-05-24T22:11:30.527Z,11.10
2023-05-24T22:13:57.099Z,10.45
2023-05-24T22:16:24.201Z,11.18
2023-05-24T22:18:55.530Z,13.85
2023-05-24T22:21:22.703Z,12.65
2023-05-24T22:23:50.551Z,14.00
2023-05-24T22:26:17.405Z,12.68
2023-05-24T22:28:54.854Z,13.68
2023-05-24T22:31:22.200Z,12.52
2023-05-24T22:33:49.480Z,13.73
2023-05-24T22:36:16.217Z,14.70
2023-05-24T22:38:43.897Z,11.95
2023-05-24T22:41:10.951Z,13.45
2023-05-24T22:43:37.707Z,16.90
2023-05-24T22:46:06.576Z,16.13
2023-05-24T22:48:34.490Z,15.75
2023-05-24T22:51:01.908Z,10.68
2023-05-24T22:53:28.710Z,16.77
2023-05-24T22:55:55.608Z,12.48
2023-05-24T22:58:24.341Z,15.40
2023-05-24T23:00:51.726Z,13.15
2023-05-24T23:03:18.612Z,15.05
2023-05-24T23:05:45.781Z,15.35
2023-05-24T23:08:17.495Z,17.50
2023-05-24T23:10:46.195Z,15.82
2023-05-24T23:13:14.484Z,13.85
2023-05-24T23:15:41.234Z,14.85
2023-05-24T23:18:09.783Z,18.83
2023-05-24T23:20:40.142Z,14.52
2023-05-24T23:23:10.101Z,18.02
2023-05-24T23:25:37.724Z,18.40
2023-05-24T23:28:04.881Z,13.02
2023-05-24T23:30:31.645Z,14.57
2023-05-24T23:32:59.480Z,12.35
2023-05-24T23:35:26.224Z,14.18
2023-05-24T23:37:53.801Z,12.63
2023-05-24T23:40:21.206Z,12.10
2023-05-24T23:42:49.340Z,16.50
2023-05-24T23:45:16.569Z,12.93
2023-05-24T23:47:43.677Z,11.13
2023-05-24T23:50:11.132Z,12.52
2023-05-24T23:52:37.906Z,14.23
2023-05-24T23:55:04.960Z,10.18
2023-05-24T23:57:31.539Z,10.13
2023-05-24T23:59:58.327Z,10.93
